Time;durP1;ratioP1;P1;durP2;ratioP2;P2;SDS_P1;SDS_P2;PMS_P1;PMS_P2;Temp;Humidity;BMP_temperature;BMP_pressure;BME280_temperature;BME280_humidity;BME280_pressure;Samples;Min_cycle;Max_cycle;Signal;HPM_P1;HPM_P2
2021/07/02 00:00:32;;;;;;;7.03;2.80;;;14.50;99.90;;;;;;5003604;28;20096;-81
2021/07/02 00:02:59;;;;;;;5.63;2.53;;;14.50;99.90;;;;;;4996567;28;20046;-81
2021/07/02 00:05:25;;;;;;;5.70;2.80;;;14.40;99.90;;;;;;4996529;28;20026;-81
2021/07/02 00:07:51;;;;;;;5.22;2.70;;;14.40;99.90;;;;;;5011029;28;20037;-81
2021/07/02 00:10:16;;;;;;;7.50;2.63;;;14.40;99.90;;;;;;4992678;28;20037;-81
2021/07/02 00:12:42;;;;;;;6.30;2.55;;;14.40;99.90;;;;;;4995742;28;20030;-81
2021/07/02 00:15:08;;;;;;;5.63;2.90;;;14.40;99.90;;;;;;4993306;28;20069;-82
2021/07/02 00:17:34;;;;;;;7.65;2.63;;;14.40;99.90;;;;;;4995139;28;20441;-81
2021/07/02 00:19:59;;;;;;;4.72;2.40;;;14.30;99.90;;;;;;4992860;28;20064;-80
2021/07/02 00:22:25;;;;;;;5.47;2.78;;;14.30;99.90;;;;;;4995698;28;20391;-81
2021/07/02 00:24:51;;;;;;;5.85;2.53;;;14.30;99.90;;;;;;4995728;28;20027;-80
2021/07/02 00:27:16;;;;;;;4.80;2.42;;;14.30;99.90;;;;;;5009886;28;20045;-81
2021/07/02 00:29:42;;;;;;;7.68;2.90;;;14.30;99.90;;;;;;5012574;28;20036;-81
2021/07/02 00:32:08;;;;;;;6.85;2.90;;;14.30;99.90;;;;;;5014319;28;20396;-81
2021/07/02 00:34:34;;;;;;;6.45;3.30;;;14.20;99.90;;;;;;5009056;28;20033;-82
2021/07/02 00:36:59;;;;;;;4.82;2.45;;;14.20;99.90;;;;;;5011733;28;20033;-81
2021/07/02 00:39:25;;;;;;;6.93;2.92;;;14.20;99.90;;;;;;5012874;28;20033;-81
2021/07/02 00:41:50;;;;;;;7.13;2.80;;;14.20;99.90;;;;;;5014140;28;20160;-81
2021/07/02 00:44:16;;;;;;;7.03;3.13;;;14.20;99.90;;;;;;5011979;28;20022;-82
2021/07/02 00:46:42;;;;;;;7.53;3.33;;;14.20;99.90;;;;;;5013104;28;20456;-81
2021/07/02 00:49:09;;;;;;;5.63;3.03;;;14.10;99.90;;;;;;5015463;28;20060;-82
2021/07/02 00:51:35;;;;;;;5.47;3.08;;;14.10;99.90;;;;;;5014423;28;20030;-81
2021/07/02 00:54:01;;;;;;;7.05;3.05;;;14.10;99.90;;;;;;5015282;28;20069;-81
2021/07/02 00:56:27;;;;;;;6.47;3.00;;;14.10;99.90;;;;;;5010359;28;20581;-82
2021/07/02 00:58:52;;;;;;;5.90;2.88;;;14.10;99.90;;;;;;4993314;28;20049;-81
2021/07/02 01:01:18;;;;;;;6.30;2.63;;;14.00;99.90;;;;;;4994392;28;20039;-81
2021/07/02 01:03:48;;;;;;;5.75;2.53;;;14.00;99.90;;;;;;4995989;28;20078;-81
2021/07/02 01:06:15;;;;;;;6.40;3.08;;;14.00;99.90;;;;;;5005164;28;20046;-81
2021/07/02 01:08:42;;;;;;;5.70;3.00;;;14.00;99.90;;;;;;4994103;28;20156;-81
2021/07/02 01:11:12;;;;;;;6.88;2.83;;;14.00;99.90;;;;;;4995817;28;20134;-81
2021/07/02 01:13:38;;;;;;;6.00;2.60;;;14.10;99.90;;;;;;4993711;28;20033;-81
2021/07/02 01:16:03;;;;;;;5.90;2.90;;;14.10;99.90;;;;;;4997169;28;20031;-81
2021/07/02 01:18:29;;;;;;;5.63;3.05;;;14.00;99.90;;;;;;4996351;28;20037;-82
2021/07/02 01:20:56;;;;;;;6.70;3.50;;;14.00;99.90;;;;;;4997233;28;20027;-81
2021/07/02 01:23:22;;;;;;;6.90;3.65;;;14.00;99.90;;;;;;5006588;28;20034;-82
2021/07/02 01:25:48;;;;;;;6.10;3.08;;;14.00;99.90;;;;;;4998021;28;20030;-81
2021/07/02 01:28:16;;;;;;;6.20;3.63;;;14.00;99.90;;;;;;4997491;28;20027;-81
2021/07/02 01:30:42;;;;;;;6.72;3.53;;;14.00;99.90;;;;;;4997977;28;20104;-81
2021/07/02 01:33:09;;;;;;;5.57;2.85;;;14.00;99.90;;;;;;4997969;28;20026;-80
2021/07/02 01:35:35;;;;;;;7.45;3.38;;;14.00;99.90;;;;;;5003873;28;20636;-80
2021/07/02 01:38:01;;;;;;;6.43;3.50;;;14.00;99.90;;;;;;5017522;28;20028;-80
2021/07/02 01:40:27;;;;;;;6.32;3.25;;;14.00;99.90;;;;;;4999232;28;20030;-81
2021/07/02 01:42:53;;;;;;;6.47;3.20;;;14.00;99.90;;;;;;4996852;28;20110;-81
2021/07/02 01:45:18;;;;;;;6.47;3.15;;;13.90;99.90;;;;;;4996257;28;20038;-81
2021/07/02 01:47:44;;;;;;;5.75;2.88;;;13.90;99.90;;;;;;4998375;28;20026;-81
2021/07/02 01:50:10;;;;;;;6.70;3.17;;;13.90;99.90;;;;;;4996766;28;20030;-81
2021/07/02 01:52:36;;;;;;;6.88;3.33;;;13.90;99.90;;;;;;4998610;28;20433;-81
2021/07/02 01:55:04;;;;;;;8.13;3.60;;;13.90;99.90;;;;;;4997929;28;20030;-81
2021/07/02 01:57:29;;;;;;;6.40;3.10;;;13.80;99.90;;;;;;5000671;28;20030;-82
2021/07/02 01:59:55;;;;;;;5.65;2.97;;;13.90;99.90;;;;;;4997777;28;20484;-82
2021/07/02 02:02:22;;;;;;;7.70;3.45;;;13.80;99.90;;;;;;4997513;28;20057;-82
2021/07/02 02:04:48;;;;;;;8.73;3.15;;;13.80;99.90;;;;;;4996719;28;20035;-81
2021/07/02 02:07:14;;;;;;;6.03;2.88;;;13.80;99.90;;;;;;4997467;28;20480;-81
2021/07/02 02:09:39;;;;;;;5.72;3.15;;;13.80;99.90;;;;;;4997223;28;20663;-81
2021/07/02 02:12:06;;;;;;;7.88;3.22;;;13.80;99.90;;;;;;4999733;28;20057;-82
2021/07/02 02:14:32;;;;;;;6.75;3.15;;;13.70;99.90;;;;;;4997667;28;20061;-82
2021/07/02 02:16:58;;;;;;;7.50;2.97;;;13.70;99.90;;;;;;4998415;28;20039;-81
2021/07/02 02:19:24;;;;;;;6.60;3.28;;;13.70;99.90;;;;;;4995341;28;20031;-81
2021/07/02 02:21:50;;;;;;;7.15;3.67;;;13.70;99.90;;;;;;4995728;28;20684;-81
2021/07/02 02:24:17;;;;;;;6.63;2.88;;;13.70;99.90;;;;;;4995191;28;20026;-80
2021/07/02 02:26:43;;;;;;;6.85;3.10;;;13.70;99.90;;;;;;4995675;28;20096;-81
2021/07/02 02:29:09;;;;;;;7.20;3.33;;;13.60;99.90;;;;;;4994154;28;20038;-80
2021/07/02 02:31:34;;;;;;;5.85;3.33;;;13.60;99.90;;;;;;4995816;28;20120;-81
2021/07/02 02:34:01;;;;;;;6.15;2.95;;;13.60;99.90;;;;;;4995970;28;20037;-82
2021/07/02 02:36:27;;;;;;;6.15;2.90;;;13.60;99.90;;;;;;5008736;28;20030;-81
2021/07/02 02:38:53;;;;;;;6.03;3.13;;;13.60;99.90;;;;;;5010884;28;20647;-82
2021/07/02 02:41:19;;;;;;;6.45;3.15;;;13.60;99.90;;;;;;4995964;28;20027;-81
2021/07/02 02:43:45;;;;;;;7.68;3.40;;;13.50;99.90;;;;;;4995103;28;20278;-81
2021/07/02 02:46:10;;;;;;;7.97;3.20;;;13.50;99.90;;;;;;4996053;28;20492;-82
2021/07/02 02:48:36;;;;;;;6.30;3.65;;;13.50;99.90;;;;;;4996893;28;20481;-82
2021/07/02 02:51:02;;;;;;;7.70;3.30;;;13.40;99.90;;;;;;4995209;28;20031;-81
2021/07/02 02:53:28;;;;;;;6.47;3.03;;;13.40;99.90;;;;;;4997271;28;20523;-82
2021/07/02 02:55:54;;;;;;;6.40;3.20;;;13.40;99.90;;;;;;5001366;28;20029;-81
2021/07/02 02:58:20;;;;;;;6.88;3.05;;;13.40;99.90;;;;;;5015434;28;20057;-80
2021/07/02 03:00:45;;;;;;;7.68;3.72;;;13.30;99.90;;;;;;5015572;28;20053;-81
2021/07/02 03:03:11;;;;;;;5.78;3.17;;;13.40;99.90;;;;;;5003087;28;20084;-81
2021/07/02 03:05:37;;;;;;;7.25;3.60;;;13.30;99.90;;;;;;5010743;28;20026;-81
2021/07/02 03:08:03;;;;;;;6.35;3.38;;;13.30;99.90;;;;;;4996626;28;20026;-81
2021/07/02 03:10:29;;;;;;;9.32;3.47;;;13.20;99.90;;;;;;4996561;28;20049;-81
2021/07/02 03:12:55;;;;;;;6.38;2.72;;;13.20;99.90;;;;;;4996793;28;20106;-82
2021/07/02 03:15:21;;;;;;;6.18;3.20;;;13.10;99.90;;;;;;4995999;28;20069;-81
2021/07/02 03:17:47;;;;;;;8.48;3.60;;;13.20;99.90;;;;;;4996088;28;20038;-81
2021/07/02 03:20:13;;;;;;;6.07;3.47;;;13.20;99.90;;;;;;4995193;28;20028;-81
2021/07/02 03:22:43;;;;;;;7.18;3.38;;;13.10;99.90;;;;;;4995388;28;20041;-81
2021/07/02 03:25:10;;;;;;;6.75;3.10;;;13.10;99.90;;;;;;4996035;28;20069;-80
2021/07/02 03:27:36;;;;;;;7.25;3.50;;;13.10;99.90;;;;;;4995560;28;20076;-82
2021/07/02 03:30:04;;;;;;;8.30;3.90;;;13.00;99.90;;;;;;4994176;28;20154;-82
2021/07/02 03:32:30;;;;;;;7.90;3.50;;;13.00;99.90;;;;;;4995481;28;20065;-82
2021/07/02 03:34:55;;;;;;;7.30;3.72;;;13.10;99.90;;;;;;4994777;28;20109;-81
2021/07/02 03:37:21;;;;;;;7.40;3.53;;;12.90;99.90;;;;;;5013125;28;20112;-80
2021/07/02 03:39:46;;;;;;;7.15;3.50;;;13.00;99.90;;;;;;4998725;28;20081;-81
2021/07/02 03:42:12;;;;;;;5.97;3.13;;;13.00;99.90;;;;;;4995325;28;20023;-81
2021/07/02 03:44:37;;;;;;;7.50;3.65;;;12.90;99.90;;;;;;4994996;28;20026;-81
2021/07/02 03:47:03;;;;;;;7.97;3.38;;;12.90;99.90;;;;;;4995362;28;20050;-82
2021/07/02 03:49:29;;;;;;;6.57;3.50;;;12.90;99.90;;;;;;4994930;28;20105;-82
2021/07/02 03:51:55;;;;;;;5.82;3.38;;;12.90;99.90;;;;;;4994156;28;20105;-81
2021/07/02 03:54:21;;;;;;;6.72;3.60;;;12.90;99.90;;;;;;4995428;28;20526;-82
2021/07/02 03:59:31;;;;;;;7.65;3.65;;;12.90;99.90;;;;;;5015112;28;20076;-81
2021/07/02 04:01:57;;;;;;;7.60;3.83;;;12.90;99.90;;;;;;5021293;28;20100;-81
2021/07/02 04:04:23;;;;;;;8.65;4.30;;;12.90;99.90;;;;;;5021118;28;20084;-80
2021/07/02 04:06:49;;;;;;;8.05;3.60;;;12.90;99.90;;;;;;5032479;28;20106;-81
2021/07/02 04:09:15;;;;;;;8.13;3.80;;;12.90;99.90;;;;;;5033614;28;20025;-81
2021/07/02 04:11:40;;;;;;;9.98;4.38;;;13.00;99.90;;;;;;5033887;28;20109;-81
2021/07/02 04:14:06;;;;;;;8.20;3.90;;;13.00;99.90;;;;;;5004082;28;20029;-81
2021/07/02 04:16:32;;;;;;;6.65;3.50;;;13.00;99.90;;;;;;5007425;28;20065;-82
2021/07/02 04:18:58;;;;;;;9.65;3.85;;;13.10;99.90;;;;;;5014971;28;20022;-83
2021/07/02 04:21:24;;;;;;;6.97;3.72;;;13.10;99.90;;;;;;5016600;28;20030;-82
2021/07/02 04:23:50;;;;;;;6.75;3.33;;;13.20;99.90;;;;;;5015499;28;20030;-82
2021/07/02 04:26:15;;;;;;;6.65;3.58;;;13.20;99.90;;;;;;5013977;28;20377;-82
2021/07/02 04:28:41;;;;;;;5.95;2.88;;;13.30;99.90;;;;;;5016134;28;20017;-83
2021/07/02 04:31:07;;;;;;;5.72;3.20;;;13.30;99.90;;;;;;5028075;28;20017;-83
2021/07/02 04:33:33;;;;;;;6.90;3.30;;;13.30;99.90;;;;;;5024880;28;20065;-83
2021/07/02 04:35:59;;;;;;;7.85;3.65;;;13.40;99.90;;;;;;5017523;28;20479;-83
2021/07/02 04:38:24;;;;;;;10.73;3.33;;;13.40;99.90;;;;;;5011222;28;20026;-81
2021/07/02 04:40:50;;;;;;;7.63;3.60;;;13.50;99.90;;;;;;5018482;28;20033;-83
2021/07/02 04:43:16;;;;;;;8.15;3.58;;;13.40;99.90;;;;;;5013061;28;20488;-83
2021/07/02 04:45:42;;;;;;;10.10;3.83;;;13.50;99.90;;;;;;5015438;28;20026;-82
2021/07/02 04:48:08;;;;;;;6.45;3.75;;;13.60;99.90;;;;;;5005617;28;20105;-81
2021/07/02 04:50:33;;;;;;;6.72;3.60;;;13.60;99.90;;;;;;5017870;28;20476;-82
2021/07/02 04:52:59;;;;;;;7.38;4.22;;;13.60;99.90;;;;;;5019845;28;20107;-79
2021/07/02 04:55:25;;;;;;;7.97;4.18;;;13.70;99.90;;;;;;5017272;28;20050;-80
2021/07/02 04:57:50;;;;;;;7.68;3.83;;;13.80;99.90;;;;;;5015263;28;20038;-80
2021/07/02 05:00:16;;;;;;;6.30;3.38;;;13.90;99.90;;;;;;5018837;28;20488;-79
2021/07/02 05:02:42;;;;;;;6.63;3.33;;;13.90;99.90;;;;;;5012003;28;20025;-82
2021/07/02 05:05:09;;;;;;;7.07;3.65;;;14.00;99.90;;;;;;5017236;28;20373;-80
2021/07/02 05:07:34;;;;;;;8.73;3.70;;;14.10;99.90;;;;;;5019676;28;20212;-82
2021/07/02 05:10:01;;;;;;;6.47;3.63;;;14.10;99.90;;;;;;5015798;28;20091;-81
2021/07/02 05:12:32;;;;;;;6.18;3.00;;;14.20;99.90;;;;;;5016959;28;20022;-80
2021/07/02 05:14:58;;;;;;;7.97;3.25;;;14.20;99.90;;;;;;5017446;28;20060;-83
2021/07/02 05:17:24;;;;;;;7.32;3.45;;;14.30;99.90;;;;;;5019483;28;20061;-81
2021/07/02 05:19:51;;;;;;;7.72;3.38;;;14.30;99.90;;;;;;5016248;28;20037;-84
2021/07/02 05:22:19;;;;;;;6.78;3.38;;;14.30;99.90;;;;;;5014877;28;20014;-85
2021/07/02 05:24:45;;;;;;;8.85;4.00;;;14.30;99.90;;;;;;5019453;28;20022;-85
2021/07/02 05:27:15;;;;;;;7.22;3.63;;;14.30;99.90;;;;;;5015504;28;20025;-84
2021/07/02 05:29:43;;;;;;;9.27;4.47;;;14.30;99.90;;;;;;4998404;28;20104;-85
2021/07/02 05:32:09;;;;;;;7.40;3.92;;;14.30;99.90;;;;;;5009776;28;20083;-84
2021/07/02 05:34:35;;;;;;;7.18;3.75;;;14.40;99.90;;;;;;5027155;28;20048;-85
2021/07/02 05:37:02;;;;;;;8.35;4.00;;;14.60;99.90;;;;;;5021997;28;20034;-86
2021/07/02 05:39:28;;;;;;;6.63;3.65;;;14.80;99.90;;;;;;5029999;28;20030;-85
2021/07/02 05:41:54;;;;;;;7.03;3.97;;;14.80;99.90;;;;;;5036077;28;20129;-82
2021/07/02 05:44:19;;;;;;;7.20;3.72;;;15.00;99.90;;;;;;5008438;28;20026;-85
2021/07/02 05:46:45;;;;;;;6.47;3.92;;;15.00;99.90;;;;;;5031594;28;20112;-85
2021/07/02 05:49:12;;;;;;;8.18;3.72;;;15.10;99.90;;;;;;5035914;28;20547;-85
2021/07/02 05:51:37;;;;;;;9.02;3.83;;;14.90;99.90;;;;;;5038364;28;20423;-86
2021/07/02 05:54:04;;;;;;;7.82;4.07;;;15.00;99.90;;;;;;5000596;28;20027;-86
2021/07/02 05:56:31;;;;;;;7.97;4.22;;;14.90;99.90;;;;;;5012844;28;20101;-85
2021/07/02 06:01:25;;;;;;;6.82;3.50;;;15.00;99.90;;;;;;4967327;28;20461;-78
2021/07/02 06:03:51;;;;;;;6.45;3.45;;;15.20;99.90;;;;;;4980945;28;20098;-78
2021/07/02 06:06:18;;;;;;;6.97;3.88;;;15.40;99.90;;;;;;4983521;28;20041;-78
2021/07/02 06:08:44;;;;;;;7.13;3.63;;;15.50;99.90;;;;;;4974853;28;20026;-77
2021/07/02 06:11:10;;;;;;;8.10;3.95;;;15.70;99.90;;;;;;4956116;28;20031;-79
2021/07/02 06:13:36;;;;;;;6.95;3.50;;;15.70;99.90;;;;;;4955071;28;20087;-77
2021/07/02 06:16:01;;;;;;;8.25;3.75;;;15.80;99.90;;;;;;4966283;28;20110;-78
2021/07/02 06:18:27;;;;;;;7.13;3.63;;;16.00;99.90;;;;;;4968810;28;20022;-78
2021/07/02 06:20:54;;;;;;;6.38;3.35;;;16.10;99.90;;;;;;4973587;28;20041;-78
2021/07/02 06:23:20;;;;;;;6.38;3.50;;;16.30;99.90;;;;;;4976939;28;20055;-78
2021/07/02 06:25:47;;;;;;;7.68;3.85;;;16.40;99.90;;;;;;4967546;28;20062;-79
2021/07/02 06:28:13;;;;;;;7.00;3.80;;;16.50;99.90;;;;;;4980139;28;20023;-79
2021/07/02 06:30:40;;;;;;;6.60;3.60;;;16.60;99.90;;;;;;4987059;28;20663;-79
2021/07/02 06:33:06;;;;;;;7.10;4.05;;;16.60;99.90;;;;;;4996632;28;20033;-79
2021/07/02 06:35:31;;;;;;;6.25;3.63;;;16.70;99.90;;;;;;4997585;28;20030;-79
2021/07/02 06:37:57;;;;;;;7.57;4.00;;;16.90;99.90;;;;;;4968534;28;20412;-79
2021/07/02 06:40:22;;;;;;;6.70;3.55;;;16.90;99.90;;;;;;4979017;28;20030;-79
2021/07/02 06:42:48;;;;;;;7.32;4.00;;;16.90;99.90;;;;;;4984277;28;20027;-79
2021/07/02 06:45:16;;;;;;;5.90;3.85;;;17.10;99.90;;;;;;4976414;28;20126;-79
2021/07/02 06:48:01;;;;;;;5.97;3.45;;;17.20;99.90;;;;;;4970918;28;20067;-79
2021/07/02 06:50:29;;;;;;;6.78;3.60;;;17.40;99.90;;;;;;4993038;28;20018;-79
2021/07/02 06:52:56;;;;;;;7.63;3.60;;;17.60;99.90;;;;;;4993591;28;20014;-83
2021/07/02 06:55:22;;;;;;;5.95;3.60;;;17.70;99.90;;;;;;4974882;28;20058;-82
2021/07/02 06:57:48;;;;;;;6.18;3.42;;;17.90;99.90;;;;;;4954273;28;20114;-82
2021/07/02 07:00:16;;;;;;;6.30;3.25;;;18.00;99.90;;;;;;4963767;28;20629;-82
2021/07/02 07:02:42;;;;;;;7.72;3.83;;;18.10;99.90;;;;;;4995817;28;20076;-83
2021/07/02 07:05:08;;;;;;;6.30;3.47;;;18.20;99.90;;;;;;4997583;28;20026;-83
2021/07/02 07:07:34;;;;;;;8.23;3.88;;;18.30;99.90;;;;;;5003818;28;20459;-82
2021/07/02 07:10:00;;;;;;;6.88;3.55;;;18.40;99.90;;;;;;4979762;28;20030;-83
2021/07/02 07:12:25;;;;;;;8.05;3.42;;;18.50;99.90;;;;;;4972370;28;20044;-82
2021/07/02 07:14:51;;;;;;;7.65;3.85;;;18.70;99.90;;;;;;4973230;28;20030;-82
2021/07/02 07:17:16;;;;;;;5.65;3.00;;;18.90;99.90;;;;;;4955861;28;20027;-82
2021/07/02 07:19:43;;;;;;;7.38;3.90;;;18.80;99.90;;;;;;4970589;28;20027;-82
2021/07/02 07:22:09;;;;;;;6.07;3.38;;;18.70;99.90;;;;;;4973306;28;20149;-82
2021/07/02 07:24:34;;;;;;;6.03;3.67;;;18.60;99.90;;;;;;4973068;28;20603;-83
2021/07/02 07:27:00;;;;;;;5.55;3.03;;;18.50;99.90;;;;;;4974127;28;20030;-82
2021/07/02 07:29:25;;;;;;;4.85;2.83;;;18.20;99.90;;;;;;5000429;28;20124;-82
2021/07/02 07:31:53;;;;;;;7.47;3.60;;;18.00;99.90;;;;;;4975229;28;20057;-83
2021/07/02 07:34:55;;;;;;;7.43;3.10;;;17.90;99.90;;;;;;4970387;28;20035;-83
2021/07/02 07:37:19;;;;;;;7.00;3.20;;;18.00;99.90;;;;;;4969313;28;20043;-83
2021/07/02 07:39:49;;;;;;;5.47;3.33;;;18.20;99.90;;;;;;4971253;28;20117;-83
2021/07/02 07:42:15;;;;;;;5.15;2.90;;;18.50;99.90;;;;;;4954103;28;20031;-83
2021/07/02 07:44:41;;;;;;;6.78;3.17;;;18.90;99.90;;;;;;4971498;28;20050;-83
2021/07/02 07:47:07;;;;;;;4.72;2.65;;;19.20;99.90;;;;;;4971536;28;20034;-82
2021/07/02 07:49:33;;;;;;;4.93;2.90;;;19.50;99.90;;;;;;4969564;28;20579;-84
2021/07/02 07:54:24;;;;;;;4.60;2.45;;;19.60;99.90;;;;;;4972263;28;20031;-83
2021/07/02 07:56:50;;;;;;;5.13;2.72;;;19.50;99.90;;;;;;4972260;28;20069;-83
2021/07/02 07:59:29;;;;;;;5.80;3.08;;;19.00;99.90;;;;;;4970556;28;20065;-83
2021/07/02 08:01:54;;;;;;;4.75;2.60;;;18.70;99.90;;;;;;4984346;28;20030;-83
2021/07/02 08:04:20;;;;;;;6.05;2.65;;;18.30;99.90;;;;;;4980016;28;20089;-84
2021/07/02 08:06:47;;;;;;;6.13;2.80;;;18.30;99.90;;;;;;5011615;28;20109;-84
2021/07/02 08:09:14;;;;;;;4.65;2.42;;;18.40;99.90;;;;;;4985338;28;20026;-82
2021/07/02 08:11:40;;;;;;;6.18;2.83;;;18.70;99.90;;;;;;4974126;28;20481;-83
2021/07/02 08:14:07;;;;;;;5.40;2.80;;;19.00;99.90;;;;;;4970430;28;20058;-83
2021/07/02 08:16:33;;;;;;;5.22;2.90;;;19.40;99.90;;;;;;4954771;28;20026;-83
2021/07/02 08:19:00;;;;;;;4.53;2.55;;;19.80;99.90;;;;;;4971503;28;20030;-83
2021/07/02 08:21:26;;;;;;;3.78;2.25;;;20.30;99.90;;;;;;4971529;28;20117;-83
2021/07/02 08:23:51;;;;;;;5.75;2.63;;;20.50;99.90;;;;;;4973019;28;20066;-82
2021/07/02 08:26:18;;;;;;;4.57;2.40;;;20.50;99.90;;;;;;4970294;28;20042;-83
2021/07/02 08:31:29;;;;;;;5.88;2.42;;;20.50;99.90;;;;;;4978167;28;20037;-82
2021/07/02 08:33:54;;;;;;;4.35;2.50;;;20.40;99.90;;;;;;4974809;28;20030;-83
2021/07/02 08:36:21;;;;;;;5.05;2.75;;;20.20;99.90;;;;;;4993170;28;20034;-83
2021/07/02 08:38:46;;;;;;;5.45;3.00;;;19.80;99.90;;;;;;4972002;28;20110;-83
2021/07/02 08:41:13;;;;;;;5.60;3.20;;;19.90;99.90;;;;;;4999637;28;20133;-83
2021/07/02 08:43:45;;;;;;;5.47;2.60;;;20.20;99.90;;;;;;4999424;28;20496;-82
2021/07/02 08:46:13;;;;;;;5.82;2.80;;;20.60;99.90;;;;;;4998261;28;20038;-82
2021/07/02 08:48:44;;;;;;;5.05;2.50;;;21.00;99.90;;;;;;4996781;28;20018;-82
2021/07/02 08:51:10;;;;;;;5.57;2.63;;;21.30;99.90;;;;;;4992674;28;20045;-83
2021/07/02 08:53:35;;;;;;;4.68;2.58;;;21.80;99.90;;;;;;4992833;28;20401;-83
2021/07/02 08:56:03;;;;;;;4.75;2.30;;;21.60;99.80;;;;;;4991812;28;20040;-82
2021/07/02 08:58:30;;;;;;;5.85;2.85;;;21.30;99.90;;;;;;4977404;28;20038;-84
2021/07/02 09:00:57;;;;;;;5.20;2.72;;;20.90;99.90;;;;;;4990918;28;20034;-83
2021/07/02 09:03:35;;;;;;;4.38;2.60;;;21.20;99.90;;;;;;5010058;28;20038;-83
2021/07/02 09:06:11;;;;;;;4.43;2.25;;;21.30;99.90;;;;;;4980625;28;20027;-83
2021/07/02 09:08:37;;;;;;;6.03;2.83;;;21.00;99.90;;;;;;4972280;28;20022;-83
2021/07/02 09:11:34;;;;;;;4.57;2.42;;;21.30;99.90;;;;;;4994830;28;20030;-83
2021/07/02 09:14:01;;;;;;;5.88;2.38;;;21.60;97.70;;;;;;5000149;28;20117;-84
2021/07/02 09:16:37;;;;;;;4.15;2.30;;;21.70;97.60;;;;;;4978027;28;20037;-84
2021/07/02 09:19:23;;;;;;;3.60;2.13;;;22.00;97.00;;;;;;4972549;28;20637;-84
2021/07/02 09:21:49;;;;;;;4.05;1.95;;;22.30;96.50;;;;;;4988653;28;20044;-83
2021/07/02 09:24:44;;;;;;;3.83;2.00;;;22.30;95.50;;;;;;4972639;28;20026;-84
2021/07/02 09:27:25;;;;;;;5.22;2.60;;;22.60;96.60;;;;;;4994173;28;20069;-83
2021/07/02 09:30:04;;;;;;;4.82;2.50;;;23.10;96.50;;;;;;4996709;28;20046;-84
2021/07/02 09:32:31;;;;;;;4.70;2.22;;;23.10;93.40;;;;;;4992249;28;20080;-84
2021/07/02 09:34:59;;;;;;;6.22;2.38;;;23.30;93.80;;;;;;4973184;28;20031;-84
2021/07/02 09:37:34;;;;;;;4.60;1.90;;;23.30;93.50;;;;;;4982835;28;20107;-83
2021/07/02 09:40:23;;;;;;;3.75;2.15;;;23.30;91.20;;;;;;4978834;28;20084;-83
2021/07/02 09:43:10;;;;;;;4.53;2.38;;;23.20;91.70;;;;;;4984770;28;20130;-83
2021/07/02 09:46:02;;;;;;;5.00;2.17;;;23.10;91.90;;;;;;5013274;28;20033;-83
2021/07/02 09:48:29;;;;;;;4.07;2.45;;;22.80;91.60;;;;;;4991184;28;20051;-83
2021/07/02 09:51:00;;;;;;;4.55;2.38;;;22.40;92.20;;;;;;4983193;28;20053;-84
2021/07/02 09:53:29;;;;;;;4.80;2.60;;;22.00;92.80;;;;;;4985208;28;20022;-84
2021/07/02 09:55:56;;;;;;;5.47;2.60;;;21.80;93.00;;;;;;5006016;28;20109;-84
2021/07/02 09:58:28;;;;;;;5.85;2.80;;;22.30;93.30;;;;;;4986740;28;20038;-83
2021/07/02 10:00:55;;;;;;;4.13;2.13;;;22.50;91.50;;;;;;4956703;28;20038;-84
2021/07/02 10:03:25;;;;;;;4.45;2.30;;;22.90;92.80;;;;;;4973383;28;20035;-84
2021/07/02 10:05:50;;;;;;;4.35;2.53;;;22.90;92.80;;;;;;4956912;28;20054;-84
2021/07/02 10:08:18;;;;;;;4.40;2.10;;;22.70;92.80;;;;;;4974800;28;20470;-84
2021/07/02 10:10:44;;;;;;;5.28;2.10;;;22.50;92.10;;;;;;4975960;28;20023;-84
2021/07/02 10:13:10;;;;;;;4.60;2.45;;;22.60;91.40;;;;;;4993909;28;20019;-84
2021/07/02 10:15:36;;;;;;;4.13;2.40;;;22.90;91.50;;;;;;4972807;28;20496;-83
2021/07/02 10:18:03;;;;;;;5.88;2.20;;;23.20;90.50;;;;;;4974523;28;20477;-84
2021/07/02 10:20:31;;;;;;;4.35;2.20;;;23.70;88.70;;;;;;4973836;28;20034;-84
2021/07/02 10:22:59;;;;;;;4.20;2.30;;;23.70;88.40;;;;;;4956882;28;20059;-84
2021/07/02 10:25:28;;;;;;;5.95;2.85;;;23.70;90.50;;;;;;4956882;28;20117;-84
2021/07/02 10:27:54;;;;;;;4.40;2.50;;;23.40;90.90;;;;;;4957088;28;20029;-84
2021/07/02 10:30:20;;;;;;;5.05;2.65;;;23.10;91.20;;;;;;4956518;28;20058;-84
2021/07/02 10:32:49;;;;;;;5.50;2.35;;;23.40;91.50;;;;;;4972708;28;20481;-85
2021/07/02 10:35:16;;;;;;;3.95;2.35;;;23.70;90.90;;;;;;4957678;28;20094;-84
2021/07/02 10:37:51;;;;;;;5.43;2.88;;;23.70;90.20;;;;;;4973286;28;20023;-84
2021/07/02 10:40:30;;;;;;;4.70;2.30;;;24.00;90.60;;;;;;4973767;28;20123;-85
2021/07/02 10:43:09;;;;;;;4.18;1.95;;;24.30;88.00;;;;;;4972128;28;20030;-86
2021/07/02 10:45:36;;;;;;;4.13;2.13;;;24.20;83.40;;;;;;4986422;28;20052;-85
2021/07/02 10:48:03;;;;;;;5.28;2.30;;;24.40;81.90;;;;;;4994223;28;20073;-85
2021/07/02 10:50:40;;;;;;;3.55;2.00;;;24.70;82.30;;;;;;4992062;28;20064;-85
2021/07/02 10:53:22;;;;;;;4.05;2.10;;;25.00;81.80;;;;;;4956449;28;20023;-85
2021/07/02 10:55:48;;;;;;;4.90;2.38;;;25.20;79.70;;;;;;4973310;28;20105;-85
2021/07/02 10:58:13;;;;;;;4.10;2.25;;;25.20;81.00;;;;;;4973136;28;20078;-85
2021/07/02 11:01:09;;;;;;;4.03;2.22;;;25.10;79.80;;;;;;4972786;28;20536;-85
2021/07/02 11:03:35;;;;;;;4.70;2.30;;;25.50;81.50;;;;;;4973134;28;20034;-85
2021/07/02 11:06:38;;;;;;;3.70;1.92;;;26.10;80.10;;;;;;4998831;28;20042;-85
2021/07/02 11:09:04;;;;;;;4.25;1.60;;;26.20;74.60;;;;;;4992032;28;20029;-84
2021/07/02 11:12:04;;;;;;;4.28;2.13;;;26.60;75.50;;;;;;4975842;28;20130;-85
2021/07/02 11:14:30;;;;;;;4.10;1.80;;;26.70;73.40;;;;;;4976593;28;20029;-84
2021/07/02 11:17:21;;;;;;;3.80;1.73;;;25.90;71.90;;;;;;4986181;28;20075;-85
2021/07/02 11:20:08;;;;;;;3.80;2.10;;;25.10;73.50;;;;;;5009915;28;20022;-85
2021/07/02 11:22:38;;;;;;;4.35;2.13;;;25.20;75.80;;;;;;4988369;28;20129;-84
2021/07/02 11:25:10;;;;;;;4.68;2.25;;;24.90;76.10;;;;;;4975828;28;20031;-84
2021/07/02 11:27:46;;;;;;;4.22;2.15;;;25.40;72.50;;;;;;4992260;28;20034;-84
2021/07/02 11:33:02;;;;;;;3.45;2.08;;;25.20;75.70;;;;;;4999102;28;20029;-84
2021/07/02 11:35:31;;;;;;;5.72;2.47;;;25.70;74.90;;;;;;4986189;28;20528;-84
2021/07/02 11:38:07;;;;;;;5.03;2.60;;;26.10;71.90;;;;;;4958675;28;20121;-84
2021/07/02 11:40:37;;;;;;;4.13;2.33;;;26.20;72.00;;;;;;4956741;28;20034;-84
2021/07/02 11:43:08;;;;;;;4.40;2.25;;;26.30;72.60;;;;;;4957391;28;20467;-84
2021/07/02 11:45:49;;;;;;;3.88;1.98;;;26.20;70.50;;;;;;4961342;28;20035;-84
2021/07/02 11:48:29;;;;;;;4.03;2.22;;;26.30;70.10;;;;;;4974647;28;20138;-84
2021/07/02 11:51:18;;;;;;;4.22;2.45;;;25.90;68.90;;;;;;4987484;28;20145;-84
2021/07/02 11:53:52;;;;;;;4.20;2.05;;;26.00;70.60;;;;;;4981630;28;20480;-84
2021/07/02 11:56:19;;;;;;;3.90;2.10;;;25.90;71.40;;;;;;5000922;28;20089;-84
2021/07/02 11:59:03;;;;;;;4.72;2.20;;;26.20;69.90;;;;;;4957672;28;20035;-84
2021/07/02 12:01:37;;;;;;;5.38;2.75;;;26.30;70.00;;;;;;4999059;23;20050;-85
2021/07/02 12:04:10;;;;;;;3.80;2.08;;;25.90;71.20;;;;;;4957124;28;20051;-85
2021/07/02 12:06:43;;;;;;;4.78;2.55;;;26.20;70.30;;;;;;4960512;28;20092;-86
2021/07/02 12:09:13;;;;;;;4.90;2.60;;;26.50;70.80;;;;;;4960997;28;20029;-86
2021/07/02 12:11:46;;;;;;;4.50;2.35;;;26.40;69.30;;;;;;4965643;28;20033;-85
2021/07/02 12:14:14;;;;;;;4.60;2.60;;;25.80;68.10;;;;;;4971793;28;20026;-86
2021/07/02 12:16:44;;;;;;;4.10;2.10;;;26.30;71.40;;;;;;4974075;28;20080;-85
2021/07/02 12:19:15;;;;;;;4.07;2.17;;;26.00;70.90;;;;;;4936920;28;20022;-85
2021/07/02 12:21:55;;;;;;;3.72;2.30;;;25.70;72.00;;;;;;4940744;28;20633;-85
2021/07/02 12:24:23;;;;;;;3.92;2.13;;;25.50;75.30;;;;;;4975318;28;20022;-86
2021/07/02 12:26:51;;;;;;;6.40;2.70;;;25.30;72.20;;;;;;4954494;28;20576;-86
2021/07/02 12:29:16;;;;;;;5.28;2.55;;;25.60;71.30;;;;;;4972174;28;20027;-85
2021/07/02 12:31:47;;;;;;;4.75;2.28;;;25.40;71.60;;;;;;4963128;28;20485;-86
2021/07/02 12:34:25;;;;;;;8.25;3.13;;;25.70;71.90;;;;;;4970813;28;20023;-85
2021/07/02 12:37:12;;;;;;;4.60;2.60;;;25.60;71.90;;;;;;4959901;28;20077;-84
2021/07/02 12:39:43;;;;;;;4.22;2.20;;;26.00;72.10;;;;;;4952138;28;20032;-86
2021/07/02 12:42:20;;;;;;;4.65;2.60;;;25.80;73.50;;;;;;4961650;28;20026;-85
2021/07/02 12:44:50;;;;;;;5.15;2.63;;;25.20;72.00;;;;;;4963110;28;20042;-86
2021/07/02 12:47:16;;;;;;;4.18;2.35;;;24.90;71.10;;;;;;4953789;28;20492;-86
2021/07/02 12:49:43;;;;;;;5.25;2.45;;;25.40;71.80;;;;;;4943656;28;20088;-88
2021/07/02 12:54:58;;;;;;;4.85;2.92;;;26.40;72.00;;;;;;4974986;28;20558;-86
2021/07/02 12:57:39;;;;;;;5.13;2.63;;;26.60;69.20;;;;;;4958208;28;20027;-88
2021/07/02 13:00:32;;;;;;;3.75;2.10;;;26.70;73.30;;;;;;4955859;28;20031;-87
2021/07/02 13:03:00;;;;;;;4.45;2.08;;;27.70;70.50;;;;;;4955453;28;20035;-88
2021/07/02 13:05:34;;;;;;;4.90;2.47;;;27.00;67.10;;;;;;4958536;28;20027;-88
2021/07/02 13:08:06;;;;;;;5.25;2.72;;;26.60;70.00;;;;;;4973279;28;20019;-88
2021/07/02 13:10:36;;;;;;;5.80;2.67;;;26.20;69.80;;;;;;4958838;28;20561;-88